Terminal Aerodrome Forecast
Issued by NWS Albany, NY

Home | Current Version | Previous Version | Text Only | Print | Product List | Glossary On
Versions: 1 2 3 4 5 6 7 8 9 10 11 12 13 14
000
FTUS41 KALY 122100 AAA
TAFALB
TAF AMD
KALB 122107Z 1221/1318 17009KT P6SM BKN070
      TEMPO 1221/1222 18014G20KT
     FM130000 17005KT P6SM SCT060 SCT250
     FM130800 17005KT P6SM BKN250
     FM131200 18008KT P6SM BKN050 BKN250
     FM131500 18009KT P6SM VCSH BKN050 BKN250=

USA.gov is the U.S. government's official web portal to all federal, state and local government web resources and services.